ΕΜΥ, Εθνική Μετεωρολογική Υπηρεσία - Δελτία Καιρού, Προγνώσεις

ΑΕΡΟΝΑΥΤΙΛΙΑ

GREEK AIRPORTS CODES

TAF LGKS 150700Z 1509/1518 31015KT 9999 FEW020 PROB30 TEMPO 1515/1518 31015G25KT=

EUROPEAN AIRPORTS CODES

LFPO 151200Z 25020KT 9999 BKN038 BKN043 BKN068 14/06 Q1013TEMPO -RA=